Time;durP1;ratioP1;P1;durP2;ratioP2;P2;SDS_P1;SDS_P2;PMS_P1;PMS_P2;Temp;Humidity;BMP_temperature;BMP_pressure;BME280_temperature;BME280_humidity;BME280_pressure;Samples;Min_cycle;Max_cycle;Signal;HPM_P1;HPM_P2
2022/07/23 12:31:43;;;;;;;5.90;3.88;;;;;;;;;;8431492;23;20054;-73
2022/07/23 12:35:45;;;;;;;4.97;4.07;;;;;;;;;;8437925;27;20035;-73
2022/07/23 12:39:45;;;;;;;5.82;3.88;;;;;;;;;;8439779;27;20030;-73
2022/07/23 12:43:46;;;;;;;4.28;3.60;;;;;;;;;;8436316;27;20174;-73
2022/07/23 12:47:50;;;;;;;4.37;3.97;;;;;;;;;;8435790;27;20039;-73
2022/07/23 12:51:50;;;;;;;4.75;3.67;;;;;;;;;;8435245;27;20055;-72
2022/07/23 12:55:57;;;;;;;4.80;3.83;;;;;;;;;;8431368;27;20011;-72
2022/07/23 13:00:07;;;;;;;3.95;3.65;;;;;;;;;;8434942;27;20112;-72
2022/07/23 13:04:08;;;;;;;4.18;3.78;;;;;;;;;;8430876;27;20769;-72
2022/07/23 13:08:09;;;;;;;4.60;3.70;;;;;;;;;;8432932;27;20020;-72
2022/07/23 13:12:09;;;;;;;5.03;3.67;;;;;;;;;;8429267;27;20030;-72
2022/07/23 13:16:09;;;;;;;3.87;3.57;;;;;;;;;;8426477;27;20035;-71
2022/07/23 13:20:10;;;;;;;3.77;3.47;;;;;;;;;;8419750;28;20023;-71
2022/07/23 13:24:10;;;;;;;4.20;3.73;;;;;;;;;;8420262;28;20019;-71
2022/07/23 13:28:11;;;;;;;4.33;3.57;;;;;;;;;;8420811;28;20030;-72
2022/07/23 13:32:12;;;;;;;4.30;3.33;;;;;;;;;;8418134;28;20461;-72
2022/07/23 13:36:12;;;;;;;4.23;3.57;;;;;;;;;;8420945;27;20030;-72
2022/07/23 13:40:12;;;;;;;5.47;3.78;;;;;;;;;;8419362;27;20070;-72
2022/07/23 13:44:12;;;;;;;4.50;3.57;;;;;;;;;;8419172;28;20030;-72
2022/07/23 13:48:14;;;;;;;5.45;3.80;;;;;;;;;;8417550;28;20047;-72
2022/07/23 13:52:14;;;;;;;4.40;3.60;;;;;;;;;;8419535;28;20150;-73
2022/07/23 13:56:14;;;;;;;4.85;3.70;;;;;;;;;;8419753;28;20757;-72
2022/07/23 14:00:14;;;;;;;3.88;3.50;;;;;;;;;;8418835;28;20038;-72
2022/07/23 14:04:15;;;;;;;5.53;3.80;;;;;;;;;;8419517;28;20015;-72
2022/07/23 14:08:15;;;;;;;3.90;3.60;;;;;;;;;;8420361;28;20691;-72
2022/07/23 14:12:15;;;;;;;4.53;3.70;;;;;;;;;;8418421;28;20613;-72
2022/07/23 14:16:16;;;;;;;4.00;3.60;;;;;;;;;;8419763;28;20031;-73
2022/07/23 14:20:16;;;;;;;4.80;3.70;;;;;;;;;;8417221;28;20038;-72
2022/07/23 14:24:17;;;;;;;3.88;3.47;;;;;;;;;;8419209;28;20615;-72
2022/07/23 14:28:17;;;;;;;4.13;3.60;;;;;;;;;;8419815;28;20050;-73
2022/07/23 14:32:17;;;;;;;4.85;3.47;;;;;;;;;;8416514;28;20035;-72
2022/07/23 14:36:17;;;;;;;4.88;3.80;;;;;;;;;;8421315;28;20433;-72
2022/07/23 14:40:18;;;;;;;3.93;3.60;;;;;;;;;;8418882;28;20172;-72
2022/07/23 14:44:18;;;;;;;4.40;3.30;;;;;;;;;;8418142;28;20289;-72
2022/07/23 14:48:18;;;;;;;3.90;3.60;;;;;;;;;;8418396;28;20027;-72
2022/07/23 14:52:18;;;;;;;5.55;3.70;;;;;;;;;;8418368;28;20012;-72
2022/07/23 14:56:19;;;;;;;3.70;3.40;;;;;;;;;;8417633;28;20819;-73
2022/07/23 15:00:19;;;;;;;12.83;3.87;;;;;;;;;;8418226;28;20707;-73
2022/07/23 15:04:19;;;;;;;5.05;3.97;;;;;;;;;;8423735;28;20535;-72
2022/07/23 15:08:19;;;;;;;3.90;3.50;;;;;;;;;;8424161;28;20042;-72
2022/07/23 15:12:19;;;;;;;6.37;3.37;;;;;;;;;;8424249;28;20031;-72
2022/07/23 15:16:20;;;;;;;3.50;3.20;;;;;;;;;;8423035;28;20062;-72
2022/07/23 15:20:20;;;;;;;4.35;3.47;;;;;;;;;;8422764;28;20135;-72
2022/07/23 15:24:20;;;;;;;3.63;3.27;;;;;;;;;;8425308;27;20015;-73
2022/07/23 15:28:21;;;;;;;5.00;3.43;;;;;;;;;;8426016;28;20023;-73
2022/07/23 15:32:24;;;;;;;4.37;3.57;;;;;;;;;;8423508;28;20038;-73
2022/07/23 15:36:24;;;;;;;4.32;3.40;;;;;;;;;;8408110;28;20262;-74
2022/07/23 15:40:25;;;;;;;3.88;3.50;;;;;;;;;;8426791;27;20028;-73
2022/07/23 15:44:25;;;;;;;4.20;3.72;;;;;;;;;;8427410;27;20066;-74
2022/07/23 15:48:26;;;;;;;4.60;3.72;;;;;;;;;;8424402;28;20120;-74
2022/07/23 15:52:26;;;;;;;6.10;3.50;;;;;;;;;;8425814;28;20066;-73
2022/07/23 15:56:26;;;;;;;4.47;3.53;;;;;;;;;;8428391;28;20023;-73
2022/07/23 16:00:26;;;;;;;4.07;3.42;;;;;;;;;;8426128;28;20262;-73
2022/07/23 16:04:27;;;;;;;4.13;3.60;;;;;;;;;;8427510;28;20032;-73
2022/07/23 16:08:27;;;;;;;3.72;3.22;;;;;;;;;;8428570;28;20043;-73
2022/07/23 16:12:27;;;;;;;3.67;3.38;;;;;;;;;;8426304;28;20020;-73
2022/07/23 16:16:27;;;;;;;7.25;3.58;;;;;;;;;;8427498;28;20031;-74
2022/07/23 16:20:28;;;;;;;4.25;3.60;;;;;;;;;;8425865;28;20034;-74
2022/07/23 16:24:28;;;;;;;4.82;3.38;;;;;;;;;;8427925;28;20046;-73
2022/07/23 16:28:28;;;;;;;4.07;3.30;;;;;;;;;;8427317;28;20321;-73
2022/07/23 16:32:28;;;;;;;4.72;3.33;;;;;;;;;;8425534;28;20372;-73
2022/07/23 16:36:29;;;;;;;3.78;3.40;;;;;;;;;;8427211;27;20012;-73
2022/07/23 16:40:30;;;;;;;3.60;3.20;;;;;;;;;;8419634;27;20881;-74
2022/07/23 16:44:30;;;;;;;3.83;3.45;;;;;;;;;;8426827;28;20586;-73
2022/07/23 16:48:31;;;;;;;4.20;3.60;;;;;;;;;;8426655;28;20032;-72
2022/07/23 16:52:31;;;;;;;3.42;3.10;;;;;;;;;;8427510;28;20027;-73
2022/07/23 16:56:31;;;;;;;5.30;3.60;;;;;;;;;;8426034;28;20062;-73
2022/07/23 17:00:32;;;;;;;4.20;3.80;;;;;;;;;;8425906;28;20076;-73
2022/07/23 17:04:32;;;;;;;3.78;3.47;;;;;;;;;;8426088;28;20027;-73
2022/07/23 17:08:32;;;;;;;3.80;3.40;;;;;;;;;;8426284;28;20201;-73
2022/07/23 17:12:33;;;;;;;3.80;3.50;;;;;;;;;;8425811;28;20020;-73
2022/07/23 17:16:34;;;;;;;5.90;3.58;;;;;;;;;;8405067;28;20093;-73
2022/07/23 17:20:34;;;;;;;4.75;3.42;;;;;;;;;;8425085;28;20063;-73
2022/07/23 17:24:37;;;;;;;6.70;3.53;;;;;;;;;;8425588;28;20066;-73
2022/07/23 17:28:37;;;;;;;4.28;3.30;;;;;;;;;;8424621;28;20023;-73
2022/07/23 17:32:38;;;;;;;3.50;3.20;;;;;;;;;;8425149;28;20044;-73
2022/07/23 17:36:38;;;;;;;3.77;3.40;;;;;;;;;;8425346;28;20138;-73
2022/07/23 17:40:38;;;;;;;3.60;3.30;;;;;;;;;;8403048;28;20027;-73
2022/07/23 17:44:38;;;;;;;3.67;3.38;;;;;;;;;;8424805;28;20027;-73
2022/07/23 17:48:41;;;;;;;4.13;3.50;;;;;;;;;;8424398;27;20686;-73
2022/07/23 17:52:46;;;;;;;3.53;3.22;;;;;;;;;;8424799;28;20023;-73
2022/07/23 17:56:46;;;;;;;3.53;3.20;;;;;;;;;;8425052;28;20027;-73
2022/07/23 18:00:46;;;;;;;3.88;3.45;;;;;;;;;;8421940;28;20122;-73
2022/07/23 18:04:47;;;;;;;3.60;3.30;;;;;;;;;;8405847;28;20925;-73
2022/07/23 18:08:47;;;;;;;3.03;2.83;;;;;;;;;;8425357;28;20292;-73
2022/07/23 18:12:47;;;;;;;5.57;3.65;;;;;;;;;;8403483;28;20126;-73
2022/07/23 18:16:47;;;;;;;3.83;3.20;;;;;;;;;;8424424;28;20028;-73
2022/07/23 18:20:48;;;;;;;3.78;3.38;;;;;;;;;;8423832;28;20059;-73
2022/07/23 18:24:48;;;;;;;3.28;2.97;;;;;;;;;;8424274;28;20504;-73
2022/07/23 18:28:48;;;;;;;4.18;2.78;;;;;;;;;;8424103;28;20031;-73
2022/07/23 18:32:48;;;;;;;3.60;2.90;;;;;;;;;;8423048;28;20027;-73
2022/07/23 18:36:49;;;;;;;3.50;3.20;;;;;;;;;;8409282;28;20127;-73
2022/07/23 18:40:49;;;;;;;4.40;2.95;;;;;;;;;;8431025;28;20040;-73
2022/07/23 18:44:49;;;;;;;4.80;3.00;;;;;;;;;;8430986;28;20808;-73
2022/07/23 18:48:49;;;;;;;3.30;3.00;;;;;;;;;;8429806;27;20067;-72
2022/07/23 18:52:49;;;;;;;3.58;2.85;;;;;;;;;;8430007;28;20096;-73
2022/07/23 18:56:49;;;;;;;3.88;2.90;;;;;;;;;;8430444;28;20038;-73
2022/07/23 19:00:50;;;;;;;3.78;2.80;;;;;;;;;;8416282;27;20038;-73
2022/07/23 19:04:50;;;;;;;3.30;3.00;;;;;;;;;;8430383;28;20023;-72
2022/07/23 19:08:50;;;;;;;3.78;2.70;;;;;;;;;;8430690;28;20019;-73
2022/07/23 19:12:51;;;;;;;4.27;3.07;;;;;;;;;;8429887;28;20030;-73
2022/07/23 19:16:51;;;;;;;4.35;2.95;;;;;;;;;;8428969;28;21365;-73
2022/07/23 19:20:51;;;;;;;3.95;2.83;;;;;;;;;;8430186;28;20019;-72
2022/07/23 19:24:51;;;;;;;3.08;2.70;;;;;;;;;;8430335;28;20885;-73
2022/07/23 19:28:52;;;;;;;3.17;2.53;;;;;;;;;;8429354;27;20034;-73
2022/07/23 19:32:52;;;;;;;3.92;2.75;;;;;;;;;;8427906;27;20031;-72
2022/07/23 19:36:52;;;;;;;2.92;2.72;;;;;;;;;;8429468;28;20907;-72
2022/07/23 19:40:53;;;;;;;3.60;2.65;;;;;;;;;;8426818;28;20119;-73
2022/07/23 19:44:53;;;;;;;6.68;2.85;;;;;;;;;;8409544;28;20024;-73
2022/07/23 19:48:53;;;;;;;3.67;2.83;;;;;;;;;;8426806;27;20059;-73
2022/07/23 19:52:54;;;;;;;3.80;2.80;;;;;;;;;;8430431;28;20306;-73
2022/07/23 19:56:54;;;;;;;4.05;2.80;;;;;;;;;;8408766;28;20292;-73
2022/07/23 20:00:55;;;;;;;4.22;2.97;;;;;;;;;;8427968;28;20031;-73
2022/07/23 20:04:55;;;;;;;5.55;2.60;;;;;;;;;;8428742;28;20039;-73
2022/07/23 20:08:55;;;;;;;3.15;2.70;;;;;;;;;;8429584;28;20088;-73
2022/07/23 20:12:55;;;;;;;3.58;2.78;;;;;;;;;;8427819;28;20431;-73
2022/07/23 20:16:56;;;;;;;3.50;2.90;;;;;;;;;;8427280;28;20032;-73
2022/07/23 20:20:56;;;;;;;2.90;2.60;;;;;;;;;;8428734;28;20059;-73
2022/07/23 20:24:56;;;;;;;5.00;2.90;;;;;;;;;;8426425;27;20055;-73
2022/07/23 20:28:56;;;;;;;3.95;2.67;;;;;;;;;;8428411;28;20112;-73
2022/07/23 20:32:57;;;;;;;3.90;3.00;;;;;;;;;;8426080;28;20036;-73
2022/07/23 20:36:57;;;;;;;2.90;2.70;;;;;;;;;;8427655;28;20075;-73
2022/07/23 20:40:58;;;;;;;2.58;2.38;;;;;;;;;;8426377;28;20035;-73
2022/07/23 20:44:58;;;;;;;3.35;2.90;;;;;;;;;;8427153;28;20366;-73
2022/07/23 20:48:58;;;;;;;3.30;2.95;;;;;;;;;;8425714;28;20027;-73
2022/07/23 20:52:59;;;;;;;4.80;2.60;;;;;;;;;;8427757;28;20081;-73
2022/07/23 20:56:59;;;;;;;3.43;3.03;;;;;;;;;;8425652;28;20026;-73
2022/07/23 21:00:59;;;;;;;3.70;3.00;;;;;;;;;;8423955;28;20141;-73
2022/07/23 21:04:59;;;;;;;4.07;3.03;;;;;;;;;;8426533;28;20112;-72
2022/07/23 21:09:00;;;;;;;2.92;2.60;;;;;;;;;;8425854;28;21155;-73
2022/07/23 21:13:00;;;;;;;4.78;2.70;;;;;;;;;;8426190;28;20955;-73
2022/07/23 21:17:00;;;;;;;3.03;2.80;;;;;;;;;;8423277;27;20028;-73
2022/07/23 21:21:13;;;;;;;2.97;2.78;;;;;;;;;;8424914;28;20127;-73
2022/07/23 21:25:14;;;;;;;7.60;2.85;;;;;;;;;;8426347;28;20559;-73
2022/07/23 21:29:14;;;;;;;3.50;2.80;;;;;;;;;;8424402;28;20521;-73
2022/07/23 21:33:14;;;;;;;4.75;3.15;;;;;;;;;;8425085;28;20241;-73
2022/07/23 21:37:15;;;;;;;3.38;3.08;;;;;;;;;;8424817;27;20031;-73
2022/07/23 21:41:15;;;;;;;3.53;2.88;;;;;;;;;;8423318;28;20027;-73
2022/07/23 21:45:15;;;;;;;4.53;3.28;;;;;;;;;;8424344;28;20030;-73
2022/07/23 21:49:16;;;;;;;3.35;3.10;;;;;;;;;;8424647;27;20081;-73
2022/07/23 21:53:16;;;;;;;2.85;2.60;;;;;;;;;;8425113;28;20035;-72
2022/07/23 21:57:16;;;;;;;11.07;2.95;;;;;;;;;;8424191;28;20024;-72
2022/07/23 22:01:17;;;;;;;6.25;3.00;;;;;;;;;;8422886;28;20038;-72
2022/07/23 22:05:17;;;;;;;3.08;2.78;;;;;;;;;;8424521;28;20023;-72
2022/07/23 22:09:17;;;;;;;5.37;3.10;;;;;;;;;;8424640;27;20023;-73
2022/07/23 22:13:17;;;;;;;3.47;3.17;;;;;;;;;;8422863;28;20020;-72
2022/07/23 22:17:17;;;;;;;3.92;3.20;;;;;;;;;;8424151;28;20028;-73
2022/07/23 22:21:18;;;;;;;2.90;2.70;;;;;;;;;;8424735;28;20290;-72
2022/07/23 22:25:19;;;;;;;4.93;3.45;;;;;;;;;;8423907;28;20391;-73
2022/07/23 22:29:19;;;;;;;3.10;2.80;;;;;;;;;;8423988;28;21120;-73
2022/07/23 22:33:19;;;;;;;3.50;2.88;;;;;;;;;;8423535;28;20369;-73
2022/07/23 22:37:19;;;;;;;2.80;2.60;;;;;;;;;;8424060;28;20105;-72
2022/07/23 22:41:20;;;;;;;3.45;2.80;;;;;;;;;;8418083;28;20105;-72
2022/07/23 22:45:20;;;;;;;3.65;2.83;;;;;;;;;;8422806;28;20769;-72
2022/07/23 22:49:20;;;;;;;3.95;2.97;;;;;;;;;;8419729;28;20048;-72
2022/07/23 22:53:21;;;;;;;3.92;3.00;;;;;;;;;;8424105;28;20015;-73
2022/07/23 22:57:21;;;;;;;3.17;2.88;;;;;;;;;;8423494;28;20023;-73
2022/07/23 23:01:21;;;;;;;3.25;2.83;;;;;;;;;;8422322;28;20020;-72
2022/07/23 23:05:21;;;;;;;5.05;2.90;;;;;;;;;;8422370;28;20177;-72
2022/07/23 23:09:22;;;;;;;5.00;3.45;;;;;;;;;;8423714;28;20023;-72
2022/07/23 23:13:22;;;;;;;3.20;2.83;;;;;;;;;;8422508;28;20012;-72
2022/07/23 23:17:22;;;;;;;5.23;2.73;;;;;;;;;;8419744;28;20035;-72
2022/07/23 23:21:22;;;;;;;5.47;2.80;;;;;;;;;;8422115;28;20062;-73
2022/07/23 23:25:22;;;;;;;9.02;2.90;;;;;;;;;;8427644;28;20028;-73
2022/07/23 23:29:23;;;;;;;2.75;2.50;;;;;;;;;;8427328;28;20031;-73
2022/07/23 23:33:23;;;;;;;3.17;2.80;;;;;;;;;;8429045;28;20031;-73
2022/07/23 23:37:23;;;;;;;4.88;3.08;;;;;;;;;;8428724;28;20085;-73
2022/07/23 23:41:23;;;;;;;3.13;2.83;;;;;;;;;;8427611;28;20118;-73
2022/07/23 23:45:24;;;;;;;3.42;2.90;;;;;;;;;;8429163;28;20035;-73
2022/07/23 23:49:24;;;;;;;3.67;3.23;;;;;;;;;;8422055;28;20015;-73
2022/07/23 23:53:24;;;;;;;4.50;3.08;;;;;;;;;;8427705;28;20061;-72
2022/07/23 23:57:24;;;;;;;3.85;3.05;;;;;;;;;;8402312;28;20023;-72
